createdAt,value
2019-05-23T00:01:00.682Z,10.60
2019-05-23T00:03:30.541Z,10.60
2019-05-23T00:06:06.094Z,10.60
2019-05-23T00:08:34.691Z,10.60
2019-05-23T00:11:05.382Z,10.60
2019-05-23T00:13:35.256Z,10.60
2019-05-23T00:16:05.066Z,10.50
2019-05-23T00:18:34.438Z,10.50
2019-05-23T00:21:03.427Z,10.50
2019-05-23T00:23:32.505Z,10.50
2019-05-23T00:26:01.060Z,10.50
2019-05-23T00:28:29.755Z,10.40
2019-05-23T00:30:59.818Z,10.40
2019-05-23T00:33:32.799Z,10.50
2019-05-23T00:36:02.079Z,10.50
2019-05-23T00:38:31.507Z,10.40
2019-05-23T00:41:00.372Z,10.40
2019-05-23T00:43:29.392Z,10.40
2019-05-23T00:45:58.085Z,10.40
2019-05-23T00:48:26.314Z,10.40
2019-05-23T00:50:55.914Z,10.30
2019-05-23T00:53:24.492Z,10.30
2019-05-23T00:55:53.562Z,10.30
2019-05-23T00:58:21.773Z,10.30
2019-05-23T01:00:50.969Z,10.30
2019-05-23T01:03:19.678Z,10.30
2019-05-23T01:05:48.184Z,10.30
2019-05-23T01:08:16.669Z,10.30
2019-05-23T01:10:45.337Z,10.30
2019-05-23T01:13:14.390Z,10.20
2019-05-23T01:15:43.300Z,10.20
2019-05-23T01:18:11.770Z,10.20
2019-05-23T01:20:59.671Z,10.20
2019-05-23T01:23:30.495Z,10.20
2019-05-23T01:25:58.734Z,10.10
2019-05-23T01:28:27.832Z,10.20
2019-05-23T01:31:01.233Z,10.10
2019-05-23T01:33:29.451Z,10.20
2019-05-23T01:35:57.982Z,10.10
2019-05-23T01:38:27.143Z,10.10
2019-05-23T01:40:55.357Z,10.10
2019-05-23T01:43:25.530Z,10.10
2019-05-23T01:45:53.753Z,10.10
2019-05-23T01:48:22.036Z,10.10
2019-05-23T01:50:50.844Z,10.10
2019-05-23T01:53:19.802Z,10.10
2019-05-23T01:55:48.040Z,10.20
2019-05-23T01:58:16.525Z,10.10
2019-05-23T02:00:46.051Z,10.20
2019-05-23T02:03:14.934Z,10.10
2019-05-23T02:05:44.112Z,10.20
2019-05-23T02:08:13.567Z,10.20
2019-05-23T02:10:41.854Z,10.20
2019-05-23T02:13:11.339Z,10.20
2019-05-23T02:15:40.242Z,10.20
2019-05-23T02:18:09.347Z,10.20
2019-05-23T02:20:38.058Z,10.20
2019-05-23T02:23:07.597Z,10.30
2019-05-23T02:25:36.602Z,10.20
2019-05-23T02:28:06.413Z,10.20
2019-05-23T02:30:36.374Z,10.20
2019-05-23T02:33:05.815Z,10.20
2019-05-23T02:35:34.204Z,10.20
2019-05-23T02:38:09.850Z,10.20
2019-05-23T02:40:40.247Z,10.20
2019-05-23T02:43:10.490Z,10.10
2019-05-23T02:45:42.652Z,10.10
2019-05-23T02:48:15.112Z,10.10
2019-05-23T02:50:50.230Z,10.10
2019-05-23T02:53:19.631Z,10.10
2019-05-23T02:55:49.528Z,10.00
2019-05-23T02:58:24.370Z,10.00
2019-05-23T03:01:22.735Z,9.90
2019-05-23T03:03:52.027Z,9.90
2019-05-23T03:06:21.307Z,9.90
2019-05-23T03:08:49.530Z,9.90
2019-05-23T03:11:33.395Z,9.90
2019-05-23T03:14:02.550Z,9.90
2019-05-23T03:16:32.466Z,9.80
2019-05-23T03:19:05.635Z,9.90
2019-05-23T03:21:35.476Z,9.80
2019-05-23T03:24:04.919Z,9.90
2019-05-23T03:26:39.894Z,9.90
2019-05-23T03:29:08.772Z,9.80
2019-05-23T03:31:44.621Z,9.80
2019-05-23T03:34:13.102Z,9.80
2019-05-23T03:36:41.596Z,9.70
2019-05-23T03:39:11.687Z,9.70
2019-05-23T03:41:40.579Z,9.70
2019-05-23T03:44:10.713Z,9.70
2019-05-23T03:46:40.563Z,9.70
2019-05-23T03:49:11.438Z,9.70
2019-05-23T03:51:41.337Z,9.70
2019-05-23T03:54:11.187Z,9.60
2019-05-23T03:56:40.067Z,9.70
2019-05-23T03:59:08.442Z,9.70
2019-05-23T04:01:47.756Z,9.70
2019-05-23T04:04:07.348Z,9.70
2019-05-23T04:06:36.002Z,9.70
2019-05-23T04:09:07.632Z,9.70
2019-05-23T04:11:36.128Z,9.70
2019-05-23T04:14:05.207Z,9.70
2019-05-23T04:16:33.431Z,9.80
2019-05-23T04:19:01.722Z,9.70
2019-05-23T04:21:29.933Z,9.80
2019-05-23T04:23:58.336Z,9.90
2019-05-23T04:26:26.863Z,9.90
2019-05-23T04:28:55.687Z,10.00
2019-05-23T04:31:24.168Z,10.00
2019-05-23T04:33:52.394Z,10.10
2019-05-23T04:36:20.608Z,10.10
2019-05-23T04:38:49.013Z,10.20
2019-05-23T04:41:17.500Z,10.20
2019-05-23T04:43:45.751Z,10.30
2019-05-23T04:46:14.240Z,10.30
2019-05-23T04:48:42.721Z,10.40
2019-05-23T04:51:10.998Z,10.40
2019-05-23T04:53:39.868Z,10.50
2019-05-23T04:56:08.366Z,10.50
2019-05-23T04:58:36.715Z,10.50
2019-05-23T05:01:05.016Z,10.60
2019-05-23T05:03:33.463Z,10.60
2019-05-23T05:06:01.984Z,10.50
2019-05-23T05:08:30.438Z,10.60
2019-05-23T05:10:58.669Z,10.60
2019-05-23T05:13:27.323Z,10.60
2019-05-23T05:15:56.014Z,10.70
2019-05-23T05:18:24.610Z,10.70
2019-05-23T05:20:52.977Z,10.70
2019-05-23T05:23:21.226Z,10.70
2019-05-23T05:25:49.621Z,10.80
2019-05-23T05:28:17.900Z,10.80
2019-05-23T05:30:46.182Z,10.80
2019-05-23T05:33:14.654Z,10.90
2019-05-23T05:35:43.038Z,10.90
2019-05-23T05:38:11.623Z,10.90
2019-05-23T05:40:40.545Z,10.90
2019-05-23T05:43:09.438Z,10.90
2019-05-23T05:45:37.984Z,11.00
2019-05-23T05:48:06.306Z,11.00
2019-05-23T05:50:34.588Z,11.00
2019-05-23T05:53:04.062Z,11.10
2019-05-23T05:55:32.342Z,11.10
2019-05-23T05:58:00.853Z,11.10
2019-05-23T06:00:30.986Z,11.20
2019-05-23T06:03:05.286Z,11.20
2019-05-23T06:05:32.078Z,11.20
2019-05-23T06:08:00.299Z,11.20
2019-05-23T06:10:29.050Z,11.20
2019-05-23T06:12:57.297Z,11.30
2019-05-23T06:15:26.160Z,11.30
2019-05-23T06:17:54.379Z,11.30
2019-05-23T06:20:22.697Z,11.40
2019-05-23T06:22:52.278Z,11.40
2019-05-23T06:25:21.061Z,11.40
2019-05-23T06:27:50.299Z,11.40
2019-05-23T06:30:20.908Z,11.40
2019-05-23T06:32:49.148Z,11.40
2019-05-23T06:35:17.720Z,11.50
2019-05-23T06:37:46.986Z,11.40
2019-05-23T06:40:15.193Z,11.50
2019-05-23T06:42:43.700Z,11.50
2019-05-23T06:45:12.388Z,11.50
2019-05-23T06:47:40.661Z,11.60
2019-05-23T06:50:12.463Z,11.60
2019-05-23T06:52:40.791Z,11.60
2019-05-23T06:55:09.008Z,11.70
2019-05-23T06:57:37.225Z,11.70
2019-05-23T07:00:07.466Z,11.70
2019-05-23T07:02:35.921Z,11.80
2019-05-23T07:05:26.281Z,11.80
2019-05-23T07:07:54.507Z,11.80
2019-05-23T07:10:24.532Z,11.90
2019-05-23T07:12:53.930Z,11.90
2019-05-23T07:15:22.432Z,11.90
2019-05-23T07:17:50.646Z,11.90
2019-05-23T07:20:18.894Z,12.00
2019-05-23T07:22:47.130Z,12.00
2019-05-23T07:25:15.411Z,12.10
2019-05-23T07:27:43.790Z,12.10
2019-05-23T07:30:22.951Z,12.20
2019-05-23T07:32:51.974Z,12.30
2019-05-23T07:35:20.741Z,12.30
2019-05-23T07:37:48.958Z,12.40
2019-05-23T07:40:17.533Z,12.40
2019-05-23T07:42:45.733Z,12.40
2019-05-23T07:45:21.598Z,12.50
2019-05-23T07:47:49.824Z,12.60
2019-05-23T07:50:18.070Z,12.60
2019-05-23T07:52:47.228Z,12.60
2019-05-23T07:55:35.067Z,12.70
2019-05-23T07:58:03.689Z,12.70
2019-05-23T08:00:39.407Z,12.70
2019-05-23T08:03:08.211Z,12.80
2019-05-23T08:05:36.763Z,12.80
2019-05-23T08:08:05.565Z,12.80
2019-05-23T08:10:34.704Z,12.90
2019-05-23T08:13:03.315Z,13.10
2019-05-23T08:15:31.842Z,13.10
2019-05-23T08:18:01.467Z,13.10
2019-05-23T08:20:29.746Z,13.10
2019-05-23T08:22:58.173Z,13.10
2019-05-23T08:25:26.629Z,13.10
2019-05-23T08:27:54.851Z,13.20
2019-05-23T08:30:23.678Z,13.20
2019-05-23T08:32:51.922Z,13.30
2019-05-23T08:35:20.758Z,13.30
2019-05-23T08:37:48.994Z,13.40
2019-05-23T08:40:18.930Z,13.60
2019-05-23T08:42:47.477Z,13.50
2019-05-23T08:45:17.236Z,13.60
2019-05-23T08:47:45.497Z,13.60
2019-05-23T08:50:14.147Z,13.70
2019-05-23T08:52:42.351Z,13.70
2019-05-23T08:55:21.635Z,13.80
2019-05-23T08:57:50.665Z,13.80
2019-05-23T09:00:20.566Z,13.90
2019-05-23T09:02:49.510Z,14.00
2019-05-23T09:05:18.922Z,14.00
2019-05-23T09:07:48.018Z,14.00
2019-05-23T09:10:17.908Z,14.10
2019-05-23T09:12:48.560Z,14.20
2019-05-23T09:15:17.551Z,14.40
2019-05-23T09:17:53.097Z,14.50
2019-05-23T09:20:16.602Z,14.50
2019-05-23T09:22:45.080Z,14.50
2019-05-23T09:25:13.326Z,14.60
2019-05-23T09:27:41.536Z,14.60
2019-05-23T09:30:10.940Z,14.60
2019-05-23T09:32:39.626Z,14.60
2019-05-23T09:35:20.524Z,14.70
2019-05-23T09:37:38.657Z,14.70
2019-05-23T09:40:07.413Z,14.80
2019-05-23T09:42:35.672Z,14.90
2019-05-23T09:45:05.043Z,14.90
2019-05-23T09:47:33.895Z,14.90
2019-05-23T09:50:03.245Z,15.10
2019-05-23T09:52:32.351Z,15.10
2019-05-23T09:55:00.578Z,15.10
2019-05-23T09:57:29.363Z,15.30
2019-05-23T09:59:57.592Z,15.30
2019-05-23T10:02:27.486Z,15.30
2019-05-23T10:04:56.609Z,15.40
2019-05-23T10:07:25.729Z,15.40
2019-05-23T10:09:53.947Z,15.50
2019-05-23T10:12:22.690Z,15.50
2019-05-23T10:14:51.083Z,15.60
2019-05-23T10:17:19.316Z,15.60
2019-05-23T10:19:47.603Z,15.80
2019-05-23T10:22:16.098Z,15.80
2019-05-23T10:24:44.329Z,15.90
2019-05-23T10:27:13.666Z,16.10
2019-05-23T10:29:42.045Z,16.10
2019-05-23T10:32:12.164Z,16.20
2019-05-23T10:34:40.420Z,16.20
2019-05-23T10:37:10.306Z,16.30
2019-05-23T10:39:38.527Z,16.30
2019-05-23T10:42:06.750Z,16.50
2019-05-23T10:44:35.223Z,16.50
2019-05-23T10:47:03.432Z,16.60
2019-05-23T10:49:31.659Z,16.60
2019-05-23T10:51:59.996Z,16.60
2019-05-23T10:54:28.282Z,16.70
2019-05-23T10:56:56.610Z,16.80
2019-05-23T10:59:25.252Z,16.80
2019-05-23T11:01:54.395Z,16.90
2019-05-23T11:04:23.760Z,17.00
2019-05-23T11:06:52.177Z,17.10
2019-05-23T11:09:36.181Z,17.10
2019-05-23T11:11:50.786Z,17.20
2019-05-23T11:14:19.219Z,17.20
2019-05-23T11:16:47.494Z,17.30
2019-05-23T11:19:16.099Z,17.30
2019-05-23T11:21:44.324Z,17.40
2019-05-23T11:24:13.648Z,17.40
2019-05-23T11:26:41.872Z,17.40
2019-05-23T11:29:10.264Z,17.50
2019-05-23T11:31:38.502Z,17.50
2019-05-23T11:34:06.717Z,17.60
2019-05-23T11:36:36.732Z,17.60
2019-05-23T11:39:08.087Z,17.70
2019-05-23T11:41:36.502Z,17.70
2019-05-23T11:44:05.621Z,17.80
2019-05-23T11:46:37.935Z,17.90
2019-05-23T11:49:06.196Z,17.90
2019-05-23T11:51:35.719Z,18.00
2019-05-23T11:54:08.365Z,18.00
2019-05-23T11:56:35.130Z,18.00
2019-05-23T11:59:03.464Z,18.00
2019-05-23T12:01:36.321Z,18.10
2019-05-23T12:04:05.554Z,18.10
2019-05-23T12:06:51.683Z,18.20
2019-05-23T12:09:07.148Z,18.20
2019-05-23T12:11:38.064Z,18.30
2019-05-23T12:14:05.548Z,18.20
2019-05-23T12:16:34.084Z,18.20
2019-05-23T12:19:03.099Z,18.20
2019-05-23T12:21:31.527Z,18.30
2019-05-23T12:23:59.757Z,18.40
2019-05-23T12:26:28.451Z,18.40
2019-05-23T12:28:57.439Z,18.50
2019-05-23T12:31:25.723Z,18.50
2019-05-23T12:33:54.129Z,18.60
2019-05-23T12:36:22.363Z,18.60
2019-05-23T12:38:50.962Z,18.70
2019-05-23T12:41:19.426Z,18.80
2019-05-23T12:43:47.661Z,18.80
2019-05-23T12:46:16.015Z,18.80
2019-05-23T12:48:46.091Z,18.90
2019-05-23T12:51:16.006Z,18.90
2019-05-23T12:53:45.903Z,18.90
2019-05-23T12:56:15.035Z,18.90
2019-05-23T12:58:44.183Z,19.00
2019-05-23T13:01:13.649Z,19.10
2019-05-23T13:03:42.821Z,19.00
2019-05-23T13:06:11.030Z,19.10
2019-05-23T13:08:39.259Z,19.10
2019-05-23T13:11:07.577Z,19.20
2019-05-23T13:13:35.787Z,19.20
2019-05-23T13:16:04.097Z,19.20
2019-05-23T13:18:32.312Z,19.20
2019-05-23T13:21:00.538Z,19.20
2019-05-23T13:23:29.431Z,19.30
2019-05-23T13:25:57.712Z,19.20
2019-05-23T13:28:26.051Z,19.30
2019-05-23T13:30:54.369Z,19.30
2019-05-23T13:33:22.795Z,19.30
2019-05-23T13:35:51.124Z,19.40
2019-05-23T13:38:19.402Z,19.30
2019-05-23T13:40:47.645Z,19.30
2019-05-23T13:43:15.854Z,19.40
2019-05-23T13:45:44.702Z,19.40
2019-05-23T13:48:12.911Z,19.40
2019-05-23T13:50:41.276Z,19.40
2019-05-23T13:53:10.141Z,19.40
2019-05-23T13:55:39.022Z,19.40
2019-05-23T13:58:07.506Z,19.40
2019-05-23T14:00:36.286Z,19.40
2019-05-23T14:03:05.058Z,19.50
2019-05-23T14:05:33.374Z,19.40
2019-05-23T14:08:12.114Z,19.40
2019-05-23T14:10:32.103Z,19.40
2019-05-23T14:13:00.404Z,19.40
2019-05-23T14:15:30.337Z,19.40
2019-05-23T14:17:58.597Z,19.40
2019-05-23T14:20:27.660Z,19.40
2019-05-23T14:22:57.796Z,19.40
2019-05-23T14:25:26.463Z,19.40
2019-05-23T14:27:56.356Z,19.40
2019-05-23T14:30:38.028Z,19.40
2019-05-23T14:33:27.096Z,19.40
2019-05-23T14:36:02.973Z,19.40
2019-05-23T14:38:37.881Z,19.50
2019-05-23T14:41:06.291Z,19.50
2019-05-23T14:43:35.488Z,19.50
2019-05-23T14:46:14.656Z,19.50
2019-05-23T14:48:44.567Z,19.50
2019-05-23T14:51:17.450Z,19.50
2019-05-23T14:53:56.728Z,19.50
2019-05-23T14:56:26.721Z,19.50
2019-05-23T14:58:55.193Z,19.50
2019-05-23T15:01:25.057Z,19.50
2019-05-23T15:03:53.424Z,19.50
2019-05-23T15:06:22.002Z,19.50
2019-05-23T15:08:51.988Z,19.50
2019-05-23T15:11:20.678Z,19.60
2019-05-23T15:13:48.898Z,19.60
2019-05-23T15:16:17.986Z,19.60
2019-05-23T15:18:46.207Z,19.70
2019-05-23T15:21:14.463Z,19.70
2019-05-23T15:23:42.679Z,19.70
2019-05-23T15:26:22.538Z,19.70
2019-05-23T15:28:41.197Z,19.70
2019-05-23T15:31:09.500Z,19.70
2019-05-23T15:33:37.707Z,19.70
2019-05-23T15:36:06.205Z,19.70
2019-05-23T15:38:34.434Z,19.70
2019-05-23T15:41:02.734Z,19.70
2019-05-23T15:43:31.126Z,19.80
2019-05-23T15:45:59.454Z,19.80
2019-05-23T15:48:27.684Z,19.80
2019-05-23T15:50:55.899Z,19.80
2019-05-23T15:53:42.058Z,19.80
2019-05-23T15:56:27.347Z,19.80
2019-05-23T15:58:58.562Z,19.80
2019-05-23T16:01:28.421Z,19.80
2019-05-23T16:04:00.947Z,19.90
2019-05-23T16:06:30.725Z,19.90
2019-05-23T16:08:59.364Z,19.90
2019-05-23T16:11:27.751Z,19.90
2019-05-23T16:13:55.974Z,19.90
2019-05-23T16:16:24.175Z,19.90
2019-05-23T16:18:52.423Z,19.90
2019-05-23T16:21:21.373Z,19.90
2019-05-23T16:23:49.696Z,20.00
2019-05-23T16:26:17.957Z,19.80
2019-05-23T16:28:46.190Z,19.90
2019-05-23T16:31:14.415Z,19.90
2019-05-23T16:33:42.717Z,20.00
2019-05-23T16:36:11.054Z,20.00
2019-05-23T16:38:39.475Z,20.00
2019-05-23T16:41:11.580Z,20.00
2019-05-23T16:43:39.491Z,20.00
2019-05-23T16:46:07.719Z,19.90
2019-05-23T16:48:36.590Z,19.80
2019-05-23T16:51:04.809Z,19.90
2019-05-23T16:53:35.960Z,19.90
2019-05-23T16:56:10.596Z,19.90
2019-05-23T16:58:49.273Z,19.90
2019-05-23T17:01:25.150Z,19.90
2019-05-23T17:04:00.938Z,19.80
2019-05-23T17:06:49.118Z,19.90
2019-05-23T17:09:35.242Z,19.90
2019-05-23T17:12:12.175Z,19.90
2019-05-23T17:14:51.570Z,19.90
2019-05-23T17:17:48.987Z,19.90
2019-05-23T17:20:19.178Z,19.90
2019-05-23T17:22:38.266Z,19.80
2019-05-23T17:25:17.187Z,19.80
2019-05-23T17:27:49.839Z,19.80
2019-05-23T17:30:19.812Z,19.80
2019-05-23T17:32:48.191Z,19.80
2019-05-23T17:35:19.172Z,19.80
2019-05-23T17:37:47.530Z,19.80
2019-05-23T17:40:24.900Z,19.80
2019-05-23T17:42:46.139Z,19.80
2019-05-23T17:45:14.412Z,19.80
2019-05-23T17:47:42.763Z,19.80
2019-05-23T17:50:10.975Z,19.70
2019-05-23T17:52:39.225Z,19.70
2019-05-23T17:55:07.448Z,19.70
2019-05-23T17:57:35.865Z,19.70
2019-05-23T18:00:07.201Z,19.70
2019-05-23T18:02:35.443Z,19.70
2019-05-23T18:05:05.667Z,19.70
2019-05-23T18:07:34.095Z,19.60
2019-05-23T18:10:02.699Z,19.60
2019-05-23T18:12:30.994Z,19.60
2019-05-23T18:14:59.547Z,19.70
2019-05-23T18:17:28.051Z,19.70
2019-05-23T18:19:56.330Z,19.60
2019-05-23T18:22:25.425Z,19.60
2019-05-23T18:24:54.200Z,19.60
2019-05-23T18:27:22.701Z,19.60
2019-05-23T18:29:51.172Z,19.60
2019-05-23T18:32:21.031Z,19.60
2019-05-23T18:34:49.314Z,19.50
2019-05-23T18:37:17.905Z,19.50
2019-05-23T18:39:46.382Z,19.50
2019-05-23T18:42:14.622Z,19.50
2019-05-23T18:44:43.070Z,19.50
2019-05-23T18:47:12.973Z,19.50
2019-05-23T18:49:41.198Z,19.40
2019-05-23T18:52:10.159Z,19.40
2019-05-23T18:54:38.516Z,19.40
2019-05-23T18:57:06.916Z,19.30
2019-05-23T18:59:35.826Z,19.30
2019-05-23T19:02:04.939Z,19.30
2019-05-23T19:04:33.955Z,19.30
2019-05-23T19:07:02.931Z,19.30
2019-05-23T19:09:31.762Z,19.30
2019-05-23T19:12:00.059Z,19.20
2019-05-23T19:14:28.342Z,19.10
2019-05-23T19:16:57.666Z,19.20
2019-05-23T19:19:25.968Z,19.20
2019-05-23T19:21:54.208Z,19.00
2019-05-23T19:24:22.486Z,19.00
2019-05-23T19:26:51.556Z,18.90
2019-05-23T19:29:20.391Z,18.90
2019-05-23T19:31:48.626Z,18.90
2019-05-23T19:34:16.908Z,18.80
2019-05-23T19:36:45.749Z,18.70
2019-05-23T19:39:14.407Z,18.70
2019-05-23T19:41:42.677Z,18.70
2019-05-23T19:44:11.123Z,18.70
2019-05-23T19:46:39.523Z,18.60
2019-05-23T19:49:08.937Z,18.60
2019-05-23T19:51:37.219Z,18.50
2019-05-23T19:54:06.439Z,18.40
2019-05-23T19:56:35.034Z,18.30
2019-05-23T19:59:03.483Z,18.30
2019-05-23T20:01:33.350Z,18.30
2019-05-23T20:04:01.637Z,18.20
2019-05-23T20:06:30.686Z,18.20
2019-05-23T20:09:00.002Z,18.10
2019-05-23T20:11:28.254Z,18.00
2019-05-23T20:13:56.491Z,18.10
2019-05-23T20:16:24.707Z,18.00
2019-05-23T20:18:53.045Z,17.90
2019-05-23T20:21:21.633Z,17.90
2019-05-23T20:23:49.863Z,17.80
2019-05-23T20:26:18.117Z,17.70
2019-05-23T20:28:46.477Z,17.60
2019-05-23T20:31:14.716Z,17.50
2019-05-23T20:33:42.955Z,17.40
2019-05-23T20:36:12.699Z,17.30
2019-05-23T20:38:41.759Z,17.20
2019-05-23T20:41:10.495Z,17.10
2019-05-23T20:43:38.703Z,17.10
2019-05-23T20:46:06.987Z,17.10
2019-05-23T20:48:36.243Z,17.10
2019-05-23T20:51:04.553Z,17.00
2019-05-23T20:53:32.791Z,17.00
2019-05-23T20:56:01.119Z,17.00
2019-05-23T20:58:29.398Z,17.00
2019-05-23T21:00:59.290Z,17.00
2019-05-23T21:03:28.220Z,17.00
2019-05-23T21:05:56.480Z,17.00
2019-05-23T21:08:24.871Z,17.00
2019-05-23T21:10:53.114Z,17.00
2019-05-23T21:13:21.333Z,16.90
2019-05-23T21:15:49.573Z,17.00
2019-05-23T21:18:17.824Z,16.80
2019-05-23T21:20:46.752Z,16.80
2019-05-23T21:23:14.964Z,16.70
2019-05-23T21:25:44.859Z,16.60
2019-05-23T21:28:13.174Z,16.60
2019-05-23T21:30:41.859Z,16.60
2019-05-23T21:33:10.187Z,16.50
2019-05-23T21:35:38.607Z,16.50
2019-05-23T21:38:06.959Z,16.40
2019-05-23T21:40:38.455Z,16.40
2019-05-23T21:43:07.130Z,16.30
2019-05-23T21:45:35.368Z,16.30
2019-05-23T21:48:04.084Z,16.30
2019-05-23T21:50:32.562Z,16.30
2019-05-23T21:53:00.783Z,16.20
2019-05-23T21:55:35.188Z,16.20
2019-05-23T21:58:04.345Z,16.10
2019-05-23T22:00:58.230Z,16.10
2019-05-23T22:03:27.334Z,16.00
2019-05-23T22:05:55.559Z,16.00
2019-05-23T22:08:23.794Z,16.00
2019-05-23T22:10:52.028Z,15.90
2019-05-23T22:13:20.245Z,15.90
2019-05-23T22:15:48.464Z,15.80
2019-05-23T22:18:16.703Z,15.70
2019-05-23T22:20:45.009Z,15.70
2019-05-23T22:23:13.234Z,15.60
2019-05-23T22:25:41.498Z,15.60
2019-05-23T22:28:09.724Z,15.60
2019-05-23T22:30:37.936Z,15.70
2019-05-23T22:33:06.431Z,15.70
2019-05-23T22:35:34.662Z,15.60
2019-05-23T22:38:03.451Z,15.70
2019-05-23T22:40:31.711Z,15.60
2019-05-23T22:43:00.226Z,15.70
2019-05-23T22:45:29.634Z,15.60
2019-05-23T22:47:57.952Z,15.50
2019-05-23T22:50:26.505Z,15.50
2019-05-23T22:52:54.709Z,15.40
2019-05-23T22:55:22.942Z,15.40
2019-05-23T22:57:51.156Z,15.30
2019-05-23T23:00:21.043Z,15.30
2019-05-23T23:02:49.282Z,15.20
2019-05-23T23:05:17.512Z,15.20
2019-05-23T23:07:45.726Z,15.20
2019-05-23T23:10:13.946Z,15.10
2019-05-23T23:12:42.204Z,15.00
2019-05-23T23:15:10.619Z,15.00
2019-05-23T23:17:38.921Z,15.00
2019-05-23T23:20:07.872Z,15.00
2019-05-23T23:22:37.082Z,15.00
2019-05-23T23:25:06.243Z,15.00
2019-05-23T23:27:34.583Z,14.90
2019-05-23T23:30:03.977Z,14.90
2019-05-23T23:32:32.637Z,14.80
2019-05-23T23:35:01.066Z,14.70
2019-05-23T23:37:29.341Z,14.70
2019-05-23T23:39:57.685Z,14.70
2019-05-23T23:42:25.971Z,14.70
2019-05-23T23:44:53.691Z,14.60
2019-05-23T23:47:40.432Z,14.60
2019-05-23T23:50:26.803Z,14.60
2019-05-23T23:53:13.165Z,14.60
2019-05-23T23:55:59.695Z,14.50
2019-05-23T23:58:27.378Z,14.50
